X  Chiuso Dati meteorologici dell'aviazione (METAR)     LIPX Verona-Villafranca Valerio Catullo Airport
Temperatura
24°C Temperatura
12°C Punto di rugiada
47% Umidità



Vento
11 KM/H
7 MPH
3 M/S
6 KTS



80°
Est
Condizioni attuali

Nuvole sparse Nuvole sparse
Pressione 1019.92 (hPa) - 30.12 (inHg)
Visibilità 6.2 (miglio) - 10 (km)
Aeroporto
Codice-Aeroporto LIPX

Posizione: Verona-Villafranca Valerio Catullo Airport
Distanza: 50 (km)

Metar:
LIPX 100520Z 08006KT 9999 SCT080 24/12 Q1020

Ore: 10-08-2022 07:20 CEST